UKDEUKDD

Guest
Details From UKDE - Zaporizhzhia Intl
To UKDD - Dnipropetrovsk Intl
Flight Number -
Tags Generated
Created
Modified
Stats Distance 31 nm / 58 km
Max Altitude 0 ft / 0 m
Waypoints 2
Social Downloads 0
Likes 0
Share VATSIM

Download

Looking for another format? Having issues loading an existing format? Contact us
Advertisement - Login to hide

Notes

Generated

Route

UKDE UKDD

ID Type Via Altitude Latitude Longitude Leg Dist Tot Dist Heading (true) Name
O UKDE APT - 0 ft / 0 m 47.85666˚ 35.30911˚ - 0 nm - -
O UKDD APT - 0 ft / 0 m 48.35722˚ 35.08126˚ 31 nm 31 nm 343° / 343° -

Altitude Profile

Advertisement - Login to hide

UKDE

Details ICAO UKDE (OZH)
Name ZAPORIZHZHIA INTL
Region Ukraine
Timezone Europe/Zaporozhye (UTC+2.0)
Stats Elevation 373 ft / 114 m (AMSL)
Location 47.867005° 35.315693°
Runways 1
Magnetic Variation 7.730° E

METAR

UKDE 150430Z 18002MPS 1400 BR OVC004 08/08 Q1011 R20/290748 NOSIG

Decode

TAF

Not found

Departure Runways

ID Width Length Bearing (true) Bearing (mag) Surface Threshold Offset Overrun Length
02 138 ft / 42 m 8,211 ft / 2,503 m 23.09° 15.36° Concrete 0 ft / 0 m 145 ft / 44 m
20 138 ft / 42 m 8,211 ft / 2,503 m 203.10° 195.37° Concrete 0 ft / 0 m 145 ft / 44 m

UKDD

Details ICAO UKDD (DNK)
Name Dnipropetrovsk Intl
Region Ukraine
Timezone Europe/Kiev (UTC+2.0)
Stats Elevation 481 ft / 147 m (AMSL)
Location 48.357222° 35.100556°
Runways 1
Magnetic Variation 7.843° E

METAR

UKDD 150430Z 20003MPS 160V230 3900 BR OVC009 05/04 Q1010 R26/220356 BECMG 0200 FG VV001

Decode

TAF

TAF AMD TAF AMD UKDD 141848Z 1418/1518 21006MPS 0300 -DZ FG VV001 TEMPO 1418/1506 1500 -RA BR OVC004 BECMG 1506/1508 3100 BR BKN010 TX06/1512Z TN04/1503Z

Decode

Destination Runways

ID Width Length Bearing (true) Bearing (mag) Surface Threshold Offset Overrun Length
09 144 ft / 44 m 9,359 ft / 2,853 m 89.99° 82.15° Concrete 0 ft / 0 m 0 ft / 0 m
27 144 ft / 44 m 9,359 ft / 2,853 m 270.01° 262.17° Concrete 0 ft / 0 m 0 ft / 0 m

Approach Navaids

Runway Type Ident Frequency Range Bearing (true) Bearing (mag) Slope Elevation
09 Localiser IDP 109.50 MHz 18 nm / 33 km 80.68° 72.84° - 481 ft / 147 m (AMSL)
09 Glidescope IDP 109.50 MHz 10 nm / 19 km 90.00° 82.16° 2.50° 481 ft / 147 m (AMSL)
27 Localiser IDR 110.30 MHz 18 nm / 33 km 269.98° 262.14° - 481 ft / 147 m (AMSL)
27 Glidescope IDR 110.30 MHz 10 nm / 19 km 270.00° 262.16° 3.00° 481 ft / 147 m (AMSL)

Popular Alternatives